createdAt,value
2019-01-24T00:02:09.535Z,-4.07
2019-01-24T00:07:12.825Z,-4.06
2019-01-24T00:12:16.030Z,-4.05
2019-01-24T00:17:19.249Z,-4.07
2019-01-24T00:22:22.529Z,-4.00
2019-01-24T00:27:25.843Z,-4.06
2019-01-24T00:32:29.044Z,-4.02
2019-01-24T00:37:32.258Z,-4.10
2019-01-24T00:42:35.548Z,-4.03
2019-01-24T00:47:38.746Z,-3.95
2019-01-24T00:52:41.961Z,-3.90
2019-01-24T00:57:45.162Z,-3.89
2019-01-24T01:02:48.415Z,-3.88
2019-01-24T01:07:51.642Z,-3.90
2019-01-24T01:12:54.838Z,-3.88
2019-01-24T01:17:58.062Z,-3.86
2019-01-24T01:23:01.285Z,-3.84
2019-01-24T01:28:04.571Z,-3.91
2019-01-24T01:33:07.826Z,-3.98
2019-01-24T01:38:11.046Z,-3.99
2019-01-24T01:43:14.260Z,-3.87
2019-01-24T01:48:17.639Z,-3.88
2019-01-24T01:53:20.853Z,-3.96
2019-01-24T01:58:24.090Z,-3.85
2019-01-24T02:03:28.426Z,-3.87
2019-01-24T02:08:31.642Z,-3.87
2019-01-24T02:13:34.847Z,-3.93
2019-01-24T02:18:38.089Z,-3.92
2019-01-24T02:23:41.309Z,-3.98
2019-01-24T02:28:44.618Z,-3.89
2019-01-24T02:33:47.934Z,-3.95
2019-01-24T02:38:51.139Z,-3.92
2019-01-24T02:43:54.436Z,-3.96
2019-01-24T02:48:57.665Z,-3.95
2019-01-24T02:54:00.904Z,-3.88
2019-01-24T02:59:04.166Z,-3.95
2019-01-24T03:04:07.485Z,-3.92
2019-01-24T03:09:10.778Z,-3.86
2019-01-24T03:14:14.004Z,-3.97
2019-01-24T03:19:17.215Z,-3.90
2019-01-24T03:24:20.474Z,-3.94
2019-01-24T03:29:23.677Z,-3.92
2019-01-24T03:34:26.909Z,-3.89
2019-01-24T03:39:30.107Z,-3.85
2019-01-24T03:44:33.420Z,-3.87
2019-01-24T03:49:36.616Z,-3.77
2019-01-24T03:54:39.820Z,-3.81
2019-01-24T03:59:43.148Z,-3.96
2019-01-24T04:04:46.447Z,-3.92
2019-01-24T04:09:49.690Z,-3.86
2019-01-24T04:14:52.936Z,-3.88
2019-01-24T04:19:56.164Z,-3.91
2019-01-24T04:24:59.429Z,-3.86
2019-01-24T04:30:02.686Z,-3.91
2019-01-24T04:35:06.134Z,-3.86
2019-01-24T04:40:11.622Z,-3.89
2019-01-24T04:45:15.430Z,-3.86
2019-01-24T04:50:18.813Z,-3.84
2019-01-24T04:55:22.041Z,-3.78
2019-01-24T05:00:28.369Z,-3.79
2019-01-24T05:05:31.578Z,-3.77
2019-01-24T05:10:34.794Z,-3.79
2019-01-24T05:15:38.005Z,-3.79
2019-01-24T05:20:41.205Z,-3.74
2019-01-24T05:25:44.428Z,-3.71
2019-01-24T05:30:47.674Z,-3.78
2019-01-24T05:35:50.897Z,-3.80
2019-01-24T05:40:54.097Z,-3.81
2019-01-24T05:45:57.303Z,-3.76
2019-01-24T05:51:00.513Z,-3.76
2019-01-24T05:56:03.763Z,-3.70
2019-01-24T06:01:08.036Z,-3.76
2019-01-24T06:06:11.233Z,-3.70
2019-01-24T06:11:14.544Z,-3.69
2019-01-24T06:16:17.746Z,-3.86
2019-01-24T06:21:20.996Z,-3.84
2019-01-24T06:26:24.212Z,-3.86
2019-01-24T06:31:27.470Z,-3.88
2019-01-24T06:36:30.672Z,-3.86
2019-01-24T06:41:33.871Z,-3.95
2019-01-24T06:46:37.093Z,-3.89
2019-01-24T06:51:40.329Z,-3.84
2019-01-24T06:56:43.523Z,-3.95
2019-01-24T07:01:46.845Z,-4.00
2019-01-24T07:06:50.047Z,-3.95
2019-01-24T07:11:53.330Z,-3.95
2019-01-24T07:16:56.569Z,-3.89
2019-01-24T07:21:59.882Z,-3.90
2019-01-24T07:27:03.161Z,-3.87
2019-01-24T07:32:06.370Z,-3.84
2019-01-24T07:37:09.569Z,-3.89
2019-01-24T07:42:12.878Z,-3.78
2019-01-24T07:47:16.186Z,-3.77
2019-01-24T07:52:19.511Z,-3.87
2019-01-24T07:57:22.747Z,-3.70
2019-01-24T08:02:26.011Z,-3.86
2019-01-24T08:07:29.224Z,-3.69
2019-01-24T08:12:32.451Z,-3.72
2019-01-24T08:17:35.689Z,-3.73
2019-01-24T08:22:38.934Z,-3.78
2019-01-24T08:27:42.259Z,-4.04
2019-01-24T08:32:45.798Z,-3.65
2019-01-24T08:37:49.062Z,-3.70
2019-01-24T08:42:52.296Z,-3.53
2019-01-24T08:47:55.545Z,-3.56
2019-01-24T08:52:58.855Z,-3.74
2019-01-24T08:58:02.096Z,-3.53
2019-01-24T09:03:05.602Z,-3.55
2019-01-24T09:08:08.964Z,-3.74
2019-01-24T09:13:12.189Z,-3.55
2019-01-24T09:18:15.394Z,-3.51
2019-01-24T09:23:18.573Z,-3.56
2019-01-24T09:28:21.775Z,-3.63
2019-01-24T09:33:24.945Z,-3.59
2019-01-24T09:38:28.185Z,-3.70
2019-01-24T09:43:31.412Z,-3.44
2019-01-24T09:48:34.605Z,-3.37
2019-01-24T09:53:37.809Z,-3.46
2019-01-24T09:58:41.004Z,-3.59
2019-01-24T10:03:44.222Z,-3.46
2019-01-24T10:08:47.397Z,-3.46
2019-01-24T10:13:51.341Z,-3.36
2019-01-24T10:18:54.568Z,-3.41
2019-01-24T10:23:57.810Z,-3.02
2019-01-24T10:29:01.060Z,-3.20
2019-01-24T10:34:04.301Z,-3.11
2019-01-24T10:39:08.804Z,-3.28
2019-01-24T10:44:11.985Z,-3.38
2019-01-24T10:49:15.206Z,-3.20
2019-01-24T10:54:18.480Z,-3.15
2019-01-24T10:59:21.648Z,-2.82
2019-01-24T11:04:24.882Z,-3.14
2019-01-24T11:09:28.116Z,-3.13
2019-01-24T11:14:31.324Z,-3.13
2019-01-24T11:19:34.609Z,-3.14
2019-01-24T11:24:37.830Z,-3.04
2019-01-24T11:29:41.098Z,-2.98
2019-01-24T11:34:44.448Z,-2.95
2019-01-24T11:39:47.698Z,-3.12
2019-01-24T11:44:50.899Z,-2.98
2019-01-24T11:49:54.118Z,-3.00
2019-01-24T11:54:57.322Z,-3.08
2019-01-24T12:00:00.535Z,-3.03
2019-01-24T12:05:03.899Z,-2.92
2019-01-24T12:10:09.764Z,-3.02
2019-01-24T12:15:14.378Z,-2.81
2019-01-24T12:20:19.299Z,-3.06
2019-01-24T12:25:22.562Z,-2.98
2019-01-24T12:30:27.741Z,-2.88
2019-01-24T12:35:30.999Z,-2.95
2019-01-24T12:40:34.300Z,-2.84
2019-01-24T12:45:37.818Z,-2.79
2019-01-24T12:50:41.107Z,-2.81
2019-01-24T12:55:44.436Z,-2.92
2019-01-24T13:00:47.799Z,-2.78
2019-01-24T13:05:51.023Z,-2.59
2019-01-24T13:10:59.871Z,-2.92
2019-01-24T13:16:03.069Z,-2.91
2019-01-24T13:21:06.293Z,-2.58
2019-01-24T13:26:09.624Z,-2.51
2019-01-24T13:31:12.970Z,-2.27
2019-01-24T13:36:19.149Z,-2.72
2019-01-24T13:41:22.479Z,-2.64
2019-01-24T13:46:25.861Z,-2.66
2019-01-24T13:51:29.101Z,-2.51
2019-01-24T13:56:32.394Z,-2.68
2019-01-24T14:01:35.690Z,-2.79
2019-01-24T14:06:39.038Z,-2.76
2019-01-24T14:11:42.295Z,-2.64
2019-01-24T14:16:45.598Z,-2.73
2019-01-24T14:21:48.907Z,-2.60
2019-01-24T14:26:52.211Z,-2.80
2019-01-24T14:31:55.565Z,-2.76
2019-01-24T14:36:58.884Z,-2.70
2019-01-24T14:42:02.258Z,-2.60
2019-01-24T14:47:06.117Z,-2.75
2019-01-24T14:52:09.814Z,-2.64
2019-01-24T14:57:13.601Z,-2.64
2019-01-24T15:02:17.410Z,-2.82
2019-01-24T15:07:21.029Z,-2.99
2019-01-24T15:12:24.446Z,-3.07
2019-01-24T15:17:27.925Z,-2.93
2019-01-24T15:22:31.482Z,-3.12
2019-01-24T15:27:34.858Z,-2.94
2019-01-24T15:32:38.379Z,-2.97
2019-01-24T15:37:41.831Z,-3.01
2019-01-24T15:42:45.254Z,-3.04
2019-01-24T15:47:48.846Z,-3.21
2019-01-24T15:52:52.214Z,-3.19
2019-01-24T15:57:55.533Z,-3.19
2019-01-24T16:02:58.989Z,-3.08
2019-01-24T16:08:03.370Z,-3.11
2019-01-24T16:13:06.852Z,-3.03
2019-01-24T16:18:11.272Z,-3.14
2019-01-24T16:23:14.627Z,-3.18
2019-01-24T16:28:24.449Z,-3.14
2019-01-24T16:33:21.389Z,-3.10
2019-01-24T16:38:24.774Z,-3.11
2019-01-24T16:43:28.074Z,-3.15
2019-01-24T16:48:31.359Z,-3.18
2019-01-24T16:53:34.710Z,-3.21
2019-01-24T16:58:38.079Z,-3.20
2019-01-24T17:03:41.413Z,-3.19
2019-01-24T17:08:45.502Z,-3.21
2019-01-24T17:13:48.835Z,-3.20
2019-01-24T17:18:52.807Z,-3.12
2019-01-24T17:23:56.137Z,-3.19
2019-01-24T17:28:59.461Z,-3.22
2019-01-24T17:34:02.779Z,-3.27
2019-01-24T17:39:16.221Z,-3.24
2019-01-24T17:44:19.559Z,-3.31
2019-01-24T17:49:22.915Z,-3.35
2019-01-24T17:54:26.232Z,-3.30
2019-01-24T17:59:29.591Z,-3.28
2019-01-24T18:04:32.946Z,-3.26
2019-01-24T18:09:36.356Z,-3.25
2019-01-24T18:14:39.711Z,-3.37
2019-01-24T18:19:43.042Z,-3.34
2019-01-24T18:24:46.363Z,-3.35
2019-01-24T18:29:49.751Z,-3.39
2019-01-24T18:34:53.207Z,-3.34
2019-01-24T18:39:56.636Z,-3.36
2019-01-24T18:45:00.191Z,-3.44
2019-01-24T18:50:03.613Z,-3.48
2019-01-24T18:55:08.315Z,-3.40
2019-01-24T19:00:14.680Z,-3.44
2019-01-24T19:05:18.018Z,-3.42
2019-01-24T19:10:22.037Z,-3.44
2019-01-24T19:15:25.476Z,-3.47
2019-01-24T19:20:28.893Z,-3.62
2019-01-24T19:25:32.326Z,-3.52
2019-01-24T19:30:35.660Z,-3.52
2019-01-24T19:35:39.178Z,-3.50
2019-01-24T19:40:42.601Z,-3.52
2019-01-24T19:45:45.988Z,-3.49
2019-01-24T19:50:49.318Z,-3.56
2019-01-24T19:55:52.649Z,-3.67
2019-01-24T20:00:55.944Z,-3.59
2019-01-24T20:05:59.322Z,-3.58
2019-01-24T20:11:02.773Z,-3.50
2019-01-24T20:16:06.292Z,-3.56
2019-01-24T20:21:12.686Z,-3.53
2019-01-24T20:26:16.183Z,-3.57
2019-01-24T20:31:19.646Z,-3.55
2019-01-24T20:36:22.996Z,-3.55
2019-01-24T20:41:26.384Z,-3.57
2019-01-24T20:46:29.779Z,-3.59
2019-01-24T20:51:33.147Z,-3.73
2019-01-24T20:56:36.462Z,-3.73
2019-01-24T21:01:39.778Z,-3.75
2019-01-24T21:06:43.253Z,-3.80
2019-01-24T21:11:46.566Z,-3.80
2019-01-24T21:16:49.918Z,-3.92
2019-01-24T21:21:53.333Z,-3.87
2019-01-24T21:26:56.651Z,-4.16
2019-01-24T21:31:59.962Z,-3.95
2019-01-24T21:37:03.254Z,-4.10
2019-01-24T21:42:06.561Z,-4.09
2019-01-24T21:47:09.861Z,-4.04
2019-01-24T21:52:13.138Z,-4.15
2019-01-24T21:57:16.462Z,-4.09
2019-01-24T22:02:19.767Z,-4.15
2019-01-24T22:07:23.079Z,-4.29
2019-01-24T22:12:26.338Z,-4.28
2019-01-24T22:17:29.664Z,-4.29
2019-01-24T22:22:32.863Z,-4.51
2019-01-24T22:27:38.863Z,-4.47
2019-01-24T22:32:42.159Z,-4.51
2019-01-24T22:37:45.381Z,-4.57
2019-01-24T22:42:48.641Z,-4.56
2019-01-24T22:47:51.979Z,-4.52
2019-01-24T22:52:55.225Z,-4.54
2019-01-24T22:57:58.438Z,-4.48
2019-01-24T23:03:01.663Z,-4.39
2019-01-24T23:08:04.980Z,-4.48
2019-01-24T23:13:08.178Z,-4.57
2019-01-24T23:18:11.402Z,-4.68
2019-01-24T23:23:14.711Z,-4.67
2019-01-24T23:28:18.006Z,-4.54
2019-01-24T23:33:21.199Z,-4.63
2019-01-24T23:38:24.505Z,-4.62
2019-01-24T23:43:27.765Z,-4.53
2019-01-24T23:48:30.947Z,-4.56
2019-01-24T23:53:34.403Z,-4.38
2019-01-24T23:58:37.622Z,-4.53
